Time;durP1;ratioP1;P1;durP2;ratioP2;P2;SDS_P1;SDS_P2;PMS_P1;PMS_P2;Temp;Humidity;BMP_temperature;BMP_pressure;BME280_temperature;BME280_humidity;BME280_pressure;Samples;Min_cycle;Max_cycle;Signal;HPM_P1;HPM_P2
2023/05/12 00:02:25;;;;;;;;;;;19.60;56.30;;;;;;6278505;28;19912;-66
2023/05/12 00:05:28;;;;;;;;;;;19.60;56.30;;;;;;6296518;28;19916;-66
2023/05/12 00:08:29;;;;;;;;;;;19.60;56.30;;;;;;6296409;28;20362;-66
2023/05/12 00:11:30;;;;;;;;;;;19.60;56.30;;;;;;6296461;28;19915;-66
2023/05/12 00:14:30;;;;;;;;;;;19.60;56.30;;;;;;6296134;28;20461;-66
2023/05/12 00:17:31;;;;;;;;;;;19.60;56.40;;;;;;6296214;28;19940;-66
2023/05/12 00:20:31;;;;;;;;;;;19.60;56.40;;;;;;6296075;28;19944;-66
2023/05/12 00:23:32;;;;;;;;;;;19.60;56.40;;;;;;6269601;28;19990;-66
2023/05/12 00:26:33;;;;;;;;;;;19.60;56.30;;;;;;6271707;28;19994;-66
2023/05/12 00:29:33;;;;;;;;;;;19.60;56.40;;;;;;6286823;28;20000;-66
2023/05/12 00:32:34;;;;;;;;;;;19.60;56.30;;;;;;6295959;28;20350;-66
2023/05/12 00:35:34;;;;;;;;;;;19.60;56.30;;;;;;6295819;28;19916;-66
2023/05/12 00:38:36;;;;;;;;;;;19.60;56.30;;;;;;6295461;28;19948;-66
2023/05/12 00:41:36;;;;;;;;;;;19.60;56.40;;;;;;6295861;28;19916;-66
2023/05/12 00:44:37;;;;;;;;;;;19.60;56.40;;;;;;6295364;28;19917;-66
2023/05/12 00:47:38;;;;;;;;;;;19.60;56.40;;;;;;6295292;28;19928;-66
2023/05/12 00:50:38;;;;;;;;;;;19.60;56.40;;;;;;6295610;28;19912;-66
2023/05/12 00:53:39;;;;;;;;;;;19.60;56.40;;;;;;6295155;28;20017;-66
2023/05/12 00:56:40;;;;;;;;;;;19.60;56.40;;;;;;6277349;28;19908;-66
2023/05/12 00:59:41;;;;;;;;;;;19.60;56.40;;;;;;6295178;28;19980;-66
2023/05/12 01:02:41;;;;;;;;;;;19.60;56.40;;;;;;6294976;28;19934;-66
2023/05/12 01:05:48;;;;;;;;;;;19.60;56.40;;;;;;6293779;28;19977;-66
2023/05/12 01:08:48;;;;;;;;;;;19.60;56.40;;;;;;6295207;28;19980;-66
2023/05/12 01:11:49;;;;;;;;;;;19.60;56.40;;;;;;6294540;28;19915;-66
2023/05/12 01:14:50;;;;;;;;;;;19.60;56.40;;;;;;6277201;28;20003;-66
2023/05/12 01:18:00;;;;;;;;;;;19.60;56.40;;;;;;6294465;28;19966;-66
2023/05/12 01:21:01;;;;;;;;;;;19.60;56.40;;;;;;6294680;28;19971;-66
2023/05/12 01:24:06;;;;;;;;;;;19.60;56.40;;;;;;6294088;28;19927;-66
2023/05/12 01:27:07;;;;;;;;;;;19.60;56.40;;;;;;6294850;28;19909;-66
2023/05/12 01:30:08;;;;;;;;;;;19.60;56.40;;;;;;6294416;28;19913;-66
2023/05/12 01:33:09;;;;;;;;;;;19.60;56.40;;;;;;6294581;28;19912;-66
2023/05/12 01:36:10;;;;;;;;;;;19.60;56.40;;;;;;6294194;28;20342;-66
2023/05/12 01:39:11;;;;;;;;;;;19.60;56.40;;;;;;6294357;28;20451;-67
2023/05/12 01:42:12;;;;;;;;;;;19.60;56.40;;;;;;6294316;28;20428;-66
2023/05/12 01:45:12;;;;;;;;;;;19.60;56.40;;;;;;6293982;28;19913;-66
2023/05/12 01:48:13;;;;;;;;;;;19.60;56.40;;;;;;6294069;28;19915;-66
2023/05/12 01:51:15;;;;;;;;;;;19.60;56.40;;;;;;6294148;28;19908;-66
2023/05/12 01:54:15;;;;;;;;;;;19.60;56.40;;;;;;6293717;28;19915;-66
2023/05/12 01:57:16;;;;;;;;;;;19.60;56.40;;;;;;6275940;28;19908;-66
2023/05/12 02:00:17;;;;;;;;;;;19.60;56.40;;;;;;6294043;28;19915;-66
2023/05/12 02:03:18;;;;;;;;;;;19.60;56.40;;;;;;6275780;28;19916;-66
2023/05/12 02:06:18;;;;;;;;;;;19.60;56.40;;;;;;6294116;28;19961;-66
2023/05/12 02:09:21;;;;;;;;;;;19.60;56.40;;;;;;6293766;28;19909;-66
2023/05/12 02:12:22;;;;;;;;;;;19.60;56.40;;;;;;6293851;28;19995;-66
2023/05/12 02:15:22;;;;;;;;;;;19.60;56.40;;;;;;6293405;28;19915;-66
2023/05/12 02:18:23;;;;;;;;;;;19.60;56.40;;;;;;6293276;28;19912;-66
2023/05/12 02:21:24;;;;;;;;;;;19.60;56.50;;;;;;6293407;28;19943;-66
2023/05/12 02:24:25;;;;;;;;;;;19.60;56.40;;;;;;6292864;28;19913;-66
2023/05/12 02:27:25;;;;;;;;;;;19.60;56.40;;;;;;6293387;28;20326;-66
2023/05/12 02:30:26;;;;;;;;;;;19.60;56.40;;;;;;6293024;28;20406;-66
2023/05/12 02:33:27;;;;;;;;;;;19.60;56.40;;;;;;6275340;28;20377;-66
2023/05/12 02:36:27;;;;;;;;;;;19.60;56.40;;;;;;6267391;28;19920;-66
2023/05/12 02:39:28;;;;;;;;;;;19.60;56.50;;;;;;6250401;28;19928;-66
2023/05/12 02:42:34;;;;;;;;;;;19.60;56.40;;;;;;6268658;28;19958;-66
2023/05/12 02:45:34;;;;;;;;;;;19.60;56.40;;;;;;6273244;28;19959;-66
2023/05/12 02:48:35;;;;;;;;;;;19.60;56.40;;;;;;6293319;28;19908;-66
2023/05/12 02:51:35;;;;;;;;;;;19.60;56.50;;;;;;6293011;28;19912;-66
2023/05/12 02:54:36;;;;;;;;;;;19.60;56.40;;;;;;6292999;28;19909;-66
2023/05/12 02:57:36;;;;;;;;;;;19.60;56.50;;;;;;6292558;28;19912;-66
2023/05/12 03:00:37;;;;;;;;;;;19.60;56.50;;;;;;6293155;28;19920;-66
2023/05/12 03:03:38;;;;;;;;;;;19.60;56.50;;;;;;6292868;28;20054;-66
2023/05/12 03:06:38;;;;;;;;;;;19.60;56.50;;;;;;6292766;28;19912;-66
2023/05/12 03:09:39;;;;;;;;;;;19.60;56.50;;;;;;6292494;28;19912;-66
2023/05/12 03:12:40;;;;;;;;;;;19.60;56.40;;;;;;6275031;28;19958;-66
2023/05/12 03:15:41;;;;;;;;;;;19.60;56.50;;;;;;6292437;28;19996;-66
2023/05/12 03:18:42;;;;;;;;;;;19.60;56.50;;;;;;6292565;28;19908;-66
2023/05/12 03:21:42;;;;;;;;;;;19.60;56.50;;;;;;6292710;28;19915;-66
2023/05/12 03:24:43;;;;;;;;;;;19.60;56.50;;;;;;6292466;28;19912;-66
2023/05/12 03:27:44;;;;;;;;;;;19.60;56.50;;;;;;6292400;28;19987;-65
2023/05/12 03:30:44;;;;;;;;;;;19.60;56.50;;;;;;6296451;28;20258;-66
2023/05/12 03:33:45;;;;;;;;;;;19.60;56.50;;;;;;6279146;28;20288;-66
2023/05/12 03:36:45;;;;;;;;;;;19.60;56.50;;;;;;6297004;28;19909;-66
2023/05/12 03:39:46;;;;;;;;;;;19.60;56.50;;;;;;6297155;28;20058;-66
2023/05/12 03:42:46;;;;;;;;;;;19.60;56.50;;;;;;6297089;28;19935;-66
2023/05/12 03:45:47;;;;;;;;;;;19.60;56.50;;;;;;6296402;28;19935;-66
2023/05/12 03:48:47;;;;;;;;;;;19.60;56.50;;;;;;6267050;28;19912;-66
2023/05/12 03:51:48;;;;;;;;;;;19.60;56.50;;;;;;6289668;28;19908;-66
2023/05/12 03:54:49;;;;;;;;;;;19.60;56.50;;;;;;6272170;28;19983;-66
2023/05/12 03:57:50;;;;;;;;;;;19.60;56.50;;;;;;6286362;28;19908;-66
2023/05/12 04:00:50;;;;;;;;;;;19.60;56.50;;;;;;6296221;28;19997;-66
2023/05/12 04:03:51;;;;;;;;;;;19.60;56.50;;;;;;6273669;28;19963;-66
2023/05/12 04:06:51;;;;;;;;;;;19.60;56.50;;;;;;6276317;28;20035;-66
2023/05/12 04:09:52;;;;;;;;;;;19.60;56.40;;;;;;6295942;28;19935;-66
2023/05/12 04:12:53;;;;;;;;;;;19.60;56.50;;;;;;6283016;28;19920;-66
2023/05/12 04:15:55;;;;;;;;;;;19.60;56.50;;;;;;6271126;28;19920;-66
2023/05/12 04:18:56;;;;;;;;;;;19.60;56.50;;;;;;6292304;28;19909;-66
2023/05/12 04:21:57;;;;;;;;;;;19.60;56.50;;;;;;6296502;28;20372;-66
2023/05/12 04:25:01;;;;;;;;;;;19.60;56.50;;;;;;6296392;28;19920;-66
2023/05/12 04:28:01;;;;;;;;;;;19.60;56.50;;;;;;6284666;28;19909;-66
2023/05/12 04:31:03;;;;;;;;;;;19.60;57.10;;;;;;6271092;28;20379;-66
2023/05/12 04:34:03;;;;;;;;;;;19.60;56.40;;;;;;6291124;28;20015;-66
2023/05/12 04:37:04;;;;;;;;;;;19.60;56.50;;;;;;6280450;28;20269;-66
2023/05/12 04:40:06;;;;;;;;;;;19.60;56.50;;;;;;6270497;28;19905;-66
2023/05/12 04:43:06;;;;;;;;;;;19.60;56.50;;;;;;6261379;28;19913;-65
2023/05/12 04:46:07;;;;;;;;;;;19.60;56.50;;;;;;6264499;28;19925;-65
2023/05/12 04:49:07;;;;;;;;;;;19.60;56.50;;;;;;6295652;28;19919;-65
2023/05/12 04:52:08;;;;;;;;;;;19.60;56.40;;;;;;6276982;28;19912;-64
2023/05/12 04:55:08;;;;;;;;;;;19.60;56.50;;;;;;6317503;28;19959;-64
2023/05/12 04:58:09;;;;;;;;;;;19.60;56.50;;;;;;6292199;28;19962;-66
2023/05/12 05:01:12;;;;;;;;;;;19.60;56.40;;;;;;6272174;28;19920;-68
2023/05/12 05:04:12;;;;;;;;;;;19.60;56.30;;;;;;6300218;28;19948;-67
2023/05/12 05:07:13;;;;;;;;;;;19.60;56.30;;;;;;6318952;28;19914;-67
2023/05/12 05:10:14;;;;;;;;;;;19.60;56.30;;;;;;6293950;28;20007;-67
2023/05/12 05:13:15;;;;;;;;;;;19.60;56.20;;;;;;6287472;28;20388;-66
2023/05/12 05:16:16;;;;;;;;;;;19.60;56.20;;;;;;6292042;28;19959;-67
2023/05/12 05:19:16;;;;;;;;;;;19.60;56.00;;;;;;6293712;28;19908;-67
2023/05/12 05:22:17;;;;;;;;;;;19.60;55.80;;;;;;6294162;28;20446;-67
2023/05/12 05:25:18;;;;;;;;;;;19.60;55.80;;;;;;6309244;28;19939;-67
2023/05/12 05:28:18;;;;;;;;;;;19.60;55.70;;;;;;6294656;28;19912;-67
2023/05/12 05:31:19;;;;;;;;;;;19.60;55.50;;;;;;6316876;28;19908;-67
2023/05/12 05:34:20;;;;;;;;;;;19.60;55.30;;;;;;6304458;28;19908;-66
2023/05/12 05:37:21;;;;;;;;;;;19.60;55.20;;;;;;6265570;28;19913;-67
2023/05/12 05:40:22;;;;;;;;;;;19.60;55.00;;;;;;6290104;28;20447;-67
2023/05/12 05:43:23;;;;;;;;;;;19.60;54.90;;;;;;6267647;28;19909;-67
2023/05/12 05:46:23;;;;;;;;;;;19.60;54.80;;;;;;6291429;28;20057;-67
2023/05/12 05:49:24;;;;;;;;;;;19.60;54.80;;;;;;6292411;28;19995;-67
2023/05/12 05:52:24;;;;;;;;;;;19.60;54.80;;;;;;6293164;28;19909;-67
2023/05/12 05:55:25;;;;;;;;;;;19.60;54.60;;;;;;6292714;28;19959;-67
2023/05/12 05:58:26;;;;;;;;;;;19.60;54.50;;;;;;6293447;28;19983;-67
2023/05/12 06:01:26;;;;;;;;;;;19.60;54.40;;;;;;6286443;28;20384;-67
2023/05/12 06:04:27;;;;;;;;;;;19.60;53.90;;;;;;6284710;28;19963;-67
2023/05/12 06:07:28;;;;;;;;;;;19.60;54.20;;;;;;6276273;28;20234;-67
2023/05/12 06:10:29;;;;;;;;;;;19.60;54.30;;;;;;6299699;28;19912;-67
2023/05/12 06:13:30;;;;;;;;;;;19.60;54.30;;;;;;6318225;28;19912;-68
2023/05/12 06:16:30;;;;;;;;;;;19.60;54.40;;;;;;6313377;28;19915;-67
2023/05/12 06:19:31;;;;;;;;;;;19.60;54.20;;;;;;6317996;28;19908;-68
2023/05/12 06:22:33;;;;;;;;;;;19.60;54.10;;;;;;6294482;28;19916;-67
2023/05/12 06:25:34;;;;;;;;;;;19.60;54.00;;;;;;6293963;28;19916;-68
2023/05/12 06:28:34;;;;;;;;;;;19.60;54.30;;;;;;6294564;28;20419;-68
2023/05/12 06:31:35;;;;;;;;;;;19.60;54.30;;;;;;6276725;28;19939;-68
2023/05/12 06:34:36;;;;;;;;;;;19.60;54.30;;;;;;6276627;28;20337;-69
2023/05/12 06:37:37;;;;;;;;;;;19.60;54.40;;;;;;6293109;28;19916;-69
2023/05/12 06:40:37;;;;;;;;;;;19.60;54.40;;;;;;6276441;28;19920;-69
2023/05/12 06:43:38;;;;;;;;;;;19.60;54.50;;;;;;6294914;28;19963;-69
2023/05/12 06:46:39;;;;;;;;;;;19.60;54.50;;;;;;6294209;28;19963;-69
2023/05/12 06:49:39;;;;;;;;;;;19.60;54.60;;;;;;6294660;28;19991;-69
2023/05/12 06:52:40;;;;;;;;;;;19.60;54.70;;;;;;6294772;28;20009;-70
2023/05/12 06:55:42;;;;;;;;;;;19.60;54.80;;;;;;6276268;28;20324;-69
2023/05/12 06:58:43;;;;;;;;;;;19.60;54.80;;;;;;6294216;28;19996;-69
2023/05/12 07:01:44;;;;;;;;;;;19.60;54.90;;;;;;6307270;28;19912;-69
2023/05/12 07:04:44;;;;;;;;;;;19.60;54.90;;;;;;6318519;28;19922;-69
2023/05/12 07:07:45;;;;;;;;;;;19.60;55.00;;;;;;6299456;28;19910;-69
2023/05/12 07:10:46;;;;;;;;;;;19.60;55.00;;;;;;6302792;28;20038;-69
2023/05/12 07:13:47;;;;;;;;;;;19.60;55.80;;;;;;6324764;28;19919;-69
2023/05/12 07:16:48;;;;;;;;;;;19.60;55.10;;;;;;6314065;28;19960;-69
2023/05/12 07:19:49;;;;;;;;;;;19.60;55.10;;;;;;6321169;28;19908;-70
2023/05/12 07:22:51;;;;;;;;;;;19.60;55.20;;;;;;6290195;28;20005;-69
2023/05/12 07:25:51;;;;;;;;;;;19.60;55.20;;;;;;6312682;28;20007;-69
2023/05/12 07:28:52;;;;;;;;;;;19.60;55.20;;;;;;6280792;28;20612;-69
2023/05/12 07:31:53;;;;;;;;;;;19.60;55.20;;;;;;6298795;28;19915;-69
2023/05/12 07:34:54;;;;;;;;;;;19.60;55.30;;;;;;6280917;28;19912;-69
2023/05/12 07:37:55;;;;;;;;;;;19.60;55.30;;;;;;6286742;28;19920;-69
2023/05/12 07:40:55;;;;;;;;;;;19.60;55.30;;;;;;6283932;28;19914;-69
2023/05/12 07:43:56;;;;;;;;;;;19.60;55.30;;;;;;6298303;28;19934;-70
2023/05/12 07:46:56;;;;;;;;;;;19.60;55.40;;;;;;6297978;28;19916;-69
2023/05/12 07:49:57;;;;;;;;;;;19.60;55.40;;;;;;6298490;28;19973;-69
2023/05/12 07:52:58;;;;;;;;;;;19.60;55.40;;;;;;6296484;28;20296;-69
2023/05/12 07:55:58;;;;;;;;;;;19.60;55.40;;;;;;6315258;28;19992;-69
2023/05/12 07:58:59;;;;;;;;;;;19.60;55.40;;;;;;6306933;28;19983;-69
2023/05/12 08:02:00;;;;;;;;;;;19.60;55.50;;;;;;6319405;28;20261;-69
2023/05/12 08:05:00;;;;;;;;;;;19.60;55.50;;;;;;6323139;28;19916;-70
2023/05/12 08:08:01;;;;;;;;;;;19.60;55.50;;;;;;6311903;28;19962;-69
2023/05/12 08:11:02;;;;;;;;;;;19.60;55.50;;;;;;6298235;28;19908;-69
2023/05/12 08:14:02;;;;;;;;;;;19.60;55.60;;;;;;6293443;28;19931;-70
2023/05/12 08:17:03;;;;;;;;;;;19.60;55.60;;;;;;6297067;28;20003;-69
2023/05/12 08:20:05;;;;;;;;;;;19.60;55.60;;;;;;6279795;28;20003;-69
2023/05/12 08:23:06;;;;;;;;;;;19.60;55.60;;;;;;6270974;28;19999;-69
2023/05/12 08:26:06;;;;;;;;;;;19.60;55.60;;;;;;6277997;28;19912;-69
2023/05/12 08:29:08;;;;;;;;;;;19.60;55.60;;;;;;6288223;28;19912;-70
2023/05/12 08:32:09;;;;;;;;;;;19.60;55.60;;;;;;6291263;28;19916;-70
2023/05/12 08:35:09;;;;;;;;;;;19.60;55.60;;;;;;6297511;28;19909;-69
2023/05/12 08:38:10;;;;;;;;;;;19.60;55.60;;;;;;6288221;28;20438;-70
2023/05/12 08:41:28;;;;;;;;;;;19.60;55.60;;;;;;6297506;28;19908;-69
2023/05/12 08:44:30;;;;;;;;;;;19.60;55.60;;;;;;6296552;28;20285;-69
2023/05/12 08:47:32;;;;;;;;;;;19.60;55.70;;;;;;6305339;28;19926;-69
2023/05/12 08:50:34;;;;;;;;;;;19.60;55.70;;;;;;6297304;28;20003;-70
2023/05/12 08:53:35;;;;;;;;;;;19.60;55.60;;;;;;6279860;28;19923;-70
2023/05/12 08:56:37;;;;;;;;;;;19.60;55.60;;;;;;6295535;28;19919;-69
2023/05/12 08:59:38;;;;;;;;;;;19.60;55.70;;;;;;6307310;28;20293;-70
2023/05/12 09:02:42;;;;;;;;;;;19.60;55.70;;;;;;6308556;28;20389;-70
2023/05/12 09:05:43;;;;;;;;;;;19.60;55.70;;;;;;6297002;28;20273;-70
2023/05/12 09:08:44;;;;;;;;;;;19.60;55.70;;;;;;6295462;28;19948;-70
2023/05/12 09:11:46;;;;;;;;;;;19.60;55.80;;;;;;6276128;28;19923;-70
2023/05/12 09:14:50;;;;;;;;;;;19.60;55.80;;;;;;6296212;28;19912;-69
2023/05/12 09:17:51;;;;;;;;;;;19.60;55.70;;;;;;6296342;28;19908;-69
2023/05/12 09:20:52;;;;;;;;;;;19.60;55.70;;;;;;6321622;28;19908;-69
2023/05/12 09:23:53;;;;;;;;;;;19.60;55.70;;;;;;6282007;28;19923;-69
2023/05/12 09:26:54;;;;;;;;;;;19.60;55.70;;;;;;6295281;28;19967;-69
2023/05/12 09:29:55;;;;;;;;;;;19.60;55.80;;;;;;6284723;28;19932;-69
2023/05/12 09:33:05;;;;;;;;;;;19.60;55.80;;;;;;6296474;28;19920;-69
2023/05/12 09:36:06;;;;;;;;;;;19.60;55.70;;;;;;6277782;28;20325;-69
2023/05/12 09:39:07;;;;;;;;;;;19.60;55.70;;;;;;6295530;28;19917;-69
2023/05/12 09:42:11;;;;;;;;;;;19.60;55.70;;;;;;6295585;28;19916;-69
2023/05/12 09:45:12;;;;;;;;;;;19.60;55.80;;;;;;6285155;28;19951;-69
2023/05/12 09:48:14;;;;;;;;;;;19.60;56.50;;;;;;6299786;28;19908;-69
2023/05/12 09:51:17;;;;;;;;;;;19.60;55.90;;;;;;6319405;28;19908;-70
2023/05/12 09:54:25;;;;;;;;;;;19.60;55.90;;;;;;6289190;28;19912;-69
2023/05/12 09:57:26;;;;;;;;;;;19.60;55.90;;;;;;6320668;28;19908;-69
2023/05/12 10:00:26;;;;;;;;;;;19.60;55.90;;;;;;6288338;28;20403;-66
2023/05/12 10:03:29;;;;;;;;;;;19.60;55.90;;;;;;6295665;28;20275;-66
2023/05/12 10:06:30;;;;;;;;;;;19.60;55.80;;;;;;6295734;28;19944;-66
2023/05/12 10:09:34;;;;;;;;;;;19.60;55.80;;;;;;6294841;28;20333;-66
2023/05/12 10:12:35;;;;;;;;;;;19.60;55.80;;;;;;6280169;28;19959;-66
2023/05/12 10:15:36;;;;;;;;;;;19.60;55.80;;;;;;6305741;28;20276;-66
2023/05/12 10:18:37;;;;;;;;;;;19.60;55.90;;;;;;6309788;28;19916;-66
2023/05/12 10:21:38;;;;;;;;;;;19.60;55.80;;;;;;6295119;28;19916;-66
2023/05/12 10:24:39;;;;;;;;;;;19.60;55.80;;;;;;6299296;28;19917;-66
2023/05/12 10:27:40;;;;;;;;;;;19.60;55.80;;;;;;6271794;28;19912;-67
2023/05/12 10:30:41;;;;;;;;;;;19.60;55.80;;;;;;6294522;28;19920;-67
2023/05/12 10:33:42;;;;;;;;;;;19.60;55.80;;;;;;6295255;28;19909;-65
2023/05/12 10:36:45;;;;;;;;;;;19.60;55.80;;;;;;6294123;28;19999;-67
2023/05/12 10:39:47;;;;;;;;;;;19.60;55.80;;;;;;6279375;28;19916;-65
2023/05/12 10:42:49;;;;;;;;;;;19.60;55.80;;;;;;6318077;28;19908;-66
2023/05/12 10:46:09;;;;;;;;;;;19.60;55.80;;;;;;6298722;28;20279;-72
2023/05/12 10:49:11;;;;;;;;;;;19.60;55.90;;;;;;6294085;28;20015;-65
2023/05/12 10:52:18;;;;;;;;;;;19.70;56.10;;;;;;6316113;28;19977;-64
2023/05/12 10:55:29;;;;;;;;;;;19.70;56.00;;;;;;6299468;28;20377;-66
2023/05/12 10:58:29;;;;;;;;;;;19.70;56.00;;;;;;6281695;28;19919;-66
2023/05/12 11:01:32;;;;;;;;;;;19.70;56.10;;;;;;6304181;28;21326;-66
2023/05/12 11:04:41;;;;;;;;;;;19.70;56.00;;;;;;6295109;28;19917;-66
2023/05/12 11:07:47;;;;;;;;;;;19.70;56.10;;;;;;6294881;28;19959;-66
2023/05/12 11:10:49;;;;;;;;;;;19.70;56.00;;;;;;6294811;28;19956;-66
2023/05/12 11:13:50;;;;;;;;;;;19.70;55.70;;;;;;6287322;28;19913;-66
2023/05/12 11:16:51;;;;;;;;;;;19.80;55.80;;;;;;6299780;28;19909;-67
2023/05/12 11:19:53;;;;;;;;;;;19.80;55.70;;;;;;6306860;28;20408;-67
2023/05/12 11:22:54;;;;;;;;;;;19.80;55.60;;;;;;6304766;28;19908;-67
2023/05/12 11:25:55;;;;;;;;;;;19.80;55.50;;;;;;6285315;28;19912;-66
2023/05/12 11:28:56;;;;;;;;;;;19.80;55.40;;;;;;6294375;28;20228;-67
2023/05/12 11:31:59;;;;;;;;;;;19.90;55.70;;;;;;6294344;28;20384;-66
2023/05/12 11:35:09;;;;;;;;;;;19.80;55.70;;;;;;6293682;28;19908;-66
2023/05/12 11:38:16;;;;;;;;;;;19.80;55.70;;;;;;6294354;28;19912;-65
2023/05/12 11:41:21;;;;;;;;;;;19.80;55.60;;;;;;6270548;28;19909;-67
2023/05/12 11:44:22;;;;;;;;;;;19.80;55.70;;;;;;6269405;28;19913;-66
2023/05/12 11:47:24;;;;;;;;;;;19.80;55.80;;;;;;6290452;28;19921;-66
2023/05/12 11:50:24;;;;;;;;;;;19.80;55.80;;;;;;6296083;28;19913;-66
2023/05/12 11:53:25;;;;;;;;;;;19.80;55.80;;;;;;6304152;28;19999;-65
2023/05/12 11:56:25;;;;;;;;;;;19.80;55.70;;;;;;6302323;28;19915;-66
2023/05/12 11:59:30;;;;;;;;;;;19.80;55.80;;;;;;6289550;28;20007;-65
2023/05/12 12:02:32;;;;;;;;;;;19.80;55.80;;;;;;6312704;28;20365;-65
2023/05/12 12:05:32;;;;;;;;;;;19.80;55.80;;;;;;6309957;28;19912;-66
2023/05/12 12:08:33;;;;;;;;;;;19.80;55.90;;;;;;6297709;28;19909;-66
2023/05/12 12:11:33;;;;;;;;;;;19.80;55.90;;;;;;6288908;28;20333;-65
2023/05/12 12:14:35;;;;;;;;;;;19.70;55.80;;;;;;6279367;28;19912;-66
2023/05/12 12:17:36;;;;;;;;;;;19.80;56.00;;;;;;6305289;28;19908;-66
2023/05/12 12:20:36;;;;;;;;;;;19.70;55.80;;;;;;6297197;28;19944;-65
2023/05/12 12:23:37;;;;;;;;;;;19.80;55.90;;;;;;6297011;28;20301;-65
2023/05/12 12:26:38;;;;;;;;;;;19.80;55.90;;;;;;6278039;28;19913;-65
2023/05/12 12:29:38;;;;;;;;;;;19.70;55.80;;;;;;6297593;28;20383;-65
2023/05/12 12:32:39;;;;;;;;;;;19.80;55.90;;;;;;6296626;28;19913;-65
2023/05/12 12:35:39;;;;;;;;;;;19.80;55.90;;;;;;6297422;28;19909;-66
2023/05/12 12:38:40;;;;;;;;;;;19.80;55.90;;;;;;6274316;28;19916;-65
2023/05/12 12:41:41;;;;;;;;;;;19.70;55.90;;;;;;6278858;28;19923;-65
2023/05/12 12:44:41;;;;;;;;;;;19.80;56.00;;;;;;6296401;28;20023;-65
2023/05/12 12:47:42;;;;;;;;;;;19.80;56.00;;;;;;6299589;28;19924;-65
2023/05/12 12:50:43;;;;;;;;;;;19.80;56.00;;;;;;6296427;28;19945;-65
2023/05/12 12:53:44;;;;;;;;;;;19.80;56.00;;;;;;6278567;28;19969;-65
2023/05/12 12:56:45;;;;;;;;;;;19.80;55.90;;;;;;6291023;28;19917;-65
2023/05/12 12:59:45;;;;;;;;;;;19.70;55.90;;;;;;6294500;28;19958;-66
2023/05/12 13:02:46;;;;;;;;;;;19.80;56.00;;;;;;6301279;28;19919;-65
2023/05/12 13:05:46;;;;;;;;;;;19.70;55.90;;;;;;6322195;28;19931;-67
2023/05/12 13:08:49;;;;;;;;;;;19.80;56.00;;;;;;6299456;28;20380;-66
2023/05/12 13:11:49;;;;;;;;;;;19.80;56.00;;;;;;6307557;28;19939;-65
2023/05/12 13:14:51;;;;;;;;;;;19.80;55.90;;;;;;6296304;28;20261;-65
2023/05/12 13:17:52;;;;;;;;;;;19.80;56.00;;;;;;6296860;28;19932;-65
2023/05/12 13:20:53;;;;;;;;;;;19.80;55.90;;;;;;6295910;28;19944;-66
2023/05/12 13:23:53;;;;;;;;;;;19.70;55.90;;;;;;6295448;28;19912;-65
2023/05/12 13:26:54;;;;;;;;;;;19.70;55.80;;;;;;6296256;28;19908;-65
2023/05/12 13:29:54;;;;;;;;;;;19.80;55.90;;;;;;6298782;28;19908;-65
2023/05/12 13:32:55;;;;;;;;;;;19.80;56.00;;;;;;6295840;28;19908;-67
2023/05/12 13:35:56;;;;;;;;;;;19.80;56.00;;;;;;6317846;28;19917;-66
2023/05/12 13:38:56;;;;;;;;;;;19.70;55.80;;;;;;6280553;28;19913;-66
2023/05/12 13:41:57;;;;;;;;;;;19.80;56.00;;;;;;6295237;28;20274;-66
2023/05/12 13:44:57;;;;;;;;;;;19.80;56.00;;;;;;6295010;28;19920;-67
2023/05/12 13:47:58;;;;;;;;;;;19.80;56.00;;;;;;6277338;28;19924;-65
2023/05/12 13:50:58;;;;;;;;;;;19.70;56.00;;;;;;6282303;28;20381;-65
2023/05/12 13:53:59;;;;;;;;;;;19.80;56.00;;;;;;6295194;28;19908;-65
2023/05/12 13:57:02;;;;;;;;;;;19.80;56.00;;;;;;6278664;28;19915;-66
2023/05/12 14:00:04;;;;;;;;;;;19.80;56.00;;;;;;6295970;28;19909;-64
2023/05/12 14:03:04;;;;;;;;;;;19.80;56.00;;;;;;6302538;28;19915;-66
2023/05/12 14:06:05;;;;;;;;;;;19.80;56.00;;;;;;6298494;28;19912;-67
2023/05/12 14:09:05;;;;;;;;;;;19.80;56.00;;;;;;6296116;28;19908;-67
2023/05/12 14:12:06;;;;;;;;;;;19.80;56.00;;;;;;6277036;28;20003;-66
2023/05/12 14:15:08;;;;;;;;;;;19.80;56.00;;;;;;6278008;28;20263;-66
2023/05/12 14:18:08;;;;;;;;;;;19.80;56.00;;;;;;6295909;28;19957;-64
2023/05/12 14:21:09;;;;;;;;;;;19.80;56.00;;;;;;6295774;28;19957;-66
2023/05/12 14:24:10;;;;;;;;;;;19.70;55.90;;;;;;6277846;28;20003;-66
2023/05/12 14:27:10;;;;;;;;;;;19.80;56.00;;;;;;6296223;28;20109;-66
2023/05/12 14:30:11;;;;;;;;;;;19.80;56.00;;;;;;6277816;28;19909;-66
2023/05/12 14:33:12;;;;;;;;;;;19.80;56.00;;;;;;6295659;28;19958;-66
2023/05/12 14:36:13;;;;;;;;;;;19.70;55.90;;;;;;6295759;28;19909;-65
2023/05/12 14:39:13;;;;;;;;;;;19.80;56.00;;;;;;6277794;28;19915;-65
2023/05/12 14:42:14;;;;;;;;;;;19.80;56.00;;;;;;6295230;28;19932;-66
2023/05/12 14:45:14;;;;;;;;;;;19.70;55.90;;;;;;6304161;28;20448;-66
2023/05/12 14:48:15;;;;;;;;;;;19.80;56.00;;;;;;6302233;28;19969;-66
2023/05/12 14:51:16;;;;;;;;;;;19.80;56.00;;;;;;6301700;28;19908;-68
2023/05/12 14:54:16;;;;;;;;;;;19.70;55.90;;;;;;6298951;28;19935;-66
2023/05/12 14:57:17;;;;;;;;;;;19.80;56.00;;;;;;6315417;28;20574;-65
2023/05/12 15:00:20;;;;;;;;;;;19.70;55.90;;;;;;6313281;28;19913;-65
2023/05/12 15:03:21;;;;;;;;;;;19.70;55.90;;;;;;6318793;28;19913;-65
2023/05/12 15:06:22;;;;;;;;;;;19.80;56.00;;;;;;6302366;28;19913;-65
2023/05/12 15:09:22;;;;;;;;;;;19.70;55.90;;;;;;6293098;28;20552;-64
2023/05/12 15:12:23;;;;;;;;;;;19.70;56.00;;;;;;6268477;28;19951;-65
2023/05/12 15:15:23;;;;;;;;;;;19.80;56.00;;;;;;6298915;28;20357;-65
2023/05/12 15:18:24;;;;;;;;;;;19.80;56.00;;;;;;6291045;28;19909;-65
2023/05/12 15:21:25;;;;;;;;;;;19.70;56.00;;;;;;6280557;28;20011;-66
2023/05/12 15:24:26;;;;;;;;;;;19.70;56.00;;;;;;6282689;28;19916;-65
2023/05/12 15:27:26;;;;;;;;;;;19.80;56.00;;;;;;6298592;28;19916;-65
2023/05/12 15:30:27;;;;;;;;;;;19.80;56.00;;;;;;6279968;28;19927;-65
2023/05/12 15:33:27;;;;;;;;;;;19.80;56.00;;;;;;6279960;28;20627;-66
2023/05/12 15:36:28;;;;;;;;;;;19.80;56.10;;;;;;6297765;28;19952;-65
2023/05/12 15:39:28;;;;;;;;;;;19.80;56.00;;;;;;6298269;28;19916;-64
2023/05/12 15:42:29;;;;;;;;;;;19.80;56.10;;;;;;6300781;28;19999;-65
2023/05/12 15:45:30;;;;;;;;;;;19.80;56.00;;;;;;6280431;28;19920;-65
2023/05/12 15:48:31;;;;;;;;;;;19.80;56.00;;;;;;6291404;28;19916;-65
2023/05/12 15:51:32;;;;;;;;;;;19.80;56.00;;;;;;6305601;28;19942;-65
2023/05/12 15:54:33;;;;;;;;;;;19.80;56.00;;;;;;6308730;28;19908;-64
2023/05/12 15:57:34;;;;;;;;;;;19.80;56.00;;;;;;6297260;28;19916;-64
2023/05/12 16:00:34;;;;;;;;;;;19.80;56.10;;;;;;6297294;28;19909;-65
2023/05/12 16:03:36;;;;;;;;;;;19.80;56.00;;;;;;6321627;28;19908;-65
2023/05/12 16:06:36;;;;;;;;;;;19.80;56.00;;;;;;6322605;28;19912;-65
2023/05/12 16:09:37;;;;;;;;;;;19.80;56.70;;;;;;6310107;28;19947;-65
2023/05/12 16:12:37;;;;;;;;;;;19.80;56.00;;;;;;6311963;28;19919;-65
2023/05/12 16:15:38;;;;;;;;;;;19.80;56.00;;;;;;6321673;28;19924;-63
2023/05/12 16:18:39;;;;;;;;;;;19.80;56.10;;;;;;6290436;28;19912;-65
2023/05/12 16:21:41;;;;;;;;;;;19.80;56.00;;;;;;6299834;28;20465;-64
2023/05/12 16:24:41;;;;;;;;;;;19.80;56.10;;;;;;6320465;28;20265;-65
2023/05/12 16:27:42;;;;;;;;;;;19.80;56.00;;;;;;6319982;28;19907;-64
2023/05/12 16:30:43;;;;;;;;;;;19.80;56.00;;;;;;6301307;28;19995;-64
2023/05/12 16:33:44;;;;;;;;;;;19.80;56.00;;;;;;6294402;28;19915;-64
2023/05/12 16:36:45;;;;;;;;;;;19.80;56.00;;;;;;6293671;28;19909;-65
2023/05/12 16:39:45;;;;;;;;;;;19.80;56.00;;;;;;6309830;28;20526;-68
2023/05/12 16:42:46;;;;;;;;;;;19.80;56.00;;;;;;6294186;28;19916;-65
2023/05/12 16:45:46;;;;;;;;;;;19.80;56.00;;;;;;6276820;28;19924;-65
2023/05/12 16:48:52;;;;;;;;;;;19.80;56.00;;;;;;6293475;28;19909;-65
2023/05/12 16:51:52;;;;;;;;;;;19.80;56.10;;;;;;6276807;28;20427;-65
2023/05/12 16:54:56;;;;;;;;;;;19.80;56.00;;;;;;6320101;28;19912;-67
2023/05/12 16:57:57;;;;;;;;;;;19.80;56.00;;;;;;6319252;28;19912;-64
2023/05/12 17:00:58;;;;;;;;;;;19.80;55.90;;;;;;6314405;28;19972;-63
2023/05/12 17:03:58;;;;;;;;;;;19.80;56.00;;;;;;6293407;28;19916;-65
2023/05/12 17:06:59;;;;;;;;;;;19.80;56.20;;;;;;6294918;28;19978;-65
2023/05/12 17:10:00;;;;;;;;;;;19.80;56.10;;;;;;6312464;28;19909;-65
2023/05/12 17:13:01;;;;;;;;;;;19.80;56.10;;;;;;6276539;28;19919;-64
2023/05/12 17:16:03;;;;;;;;;;;19.80;56.20;;;;;;6294439;28;19916;-65
2023/05/12 17:19:03;;;;;;;;;;;19.80;56.10;;;;;;6294645;28;19958;-65
2023/05/12 17:22:04;;;;;;;;;;;19.80;56.10;;;;;;6294060;28;19909;-66
2023/05/12 17:25:05;;;;;;;;;;;19.80;56.10;;;;;;6294281;28;20289;-65
2023/05/12 17:28:06;;;;;;;;;;;19.80;56.10;;;;;;6276601;28;20277;-64
2023/05/12 17:31:07;;;;;;;;;;;19.80;56.10;;;;;;6294351;28;20358;-65
2023/05/12 17:34:07;;;;;;;;;;;19.80;56.10;;;;;;6294413;28;19908;-65